Time;durP1;ratioP1;P1;durP2;ratioP2;P2;SDS_P1;SDS_P2;PMS_P1;PMS_P2;Temp;Humidity;BMP_temperature;BMP_pressure;BME280_temperature;BME280_humidity;BME280_pressure;Samples;Min_cycle;Max_cycle;Signal;HPM_P1;HPM_P2
2021/04/23 00:01:43;;;;;;;11.85;8.63;;;358.50;1766.40;;;;;;5088657;28;20021;-64
2021/04/23 00:04:09;;;;;;;11.93;8.45;;;358.50;1792.00;;;;;;5091492;28;20072;-64
2021/04/23 00:06:41;;;;;;;12.68;8.82;;;333.70;1817.60;;;;;;5091814;28;20028;-58
2021/04/23 00:09:19;;;;;;;9.00;7.07;;;333.70;1817.60;;;;;;5091144;28;20040;-63
2021/04/23 00:11:54;;;;;;;10.32;7.90;;;333.70;1740.80;;;;;;5091539;28;20107;-61
2021/04/23 00:14:22;;;;;;;10.95;7.70;;;333.70;1740.80;;;;;;5091286;28;20032;-65
2021/04/23 00:16:50;;;;;;;13.43;7.25;;;333.70;1740.80;;;;;;5091312;28;20031;-63
2021/04/23 00:19:20;;;;;;;9.23;7.57;;;333.70;1740.80;;;;;;5091594;28;20688;-62
2021/04/23 00:21:46;;;;;;;10.30;7.72;;;333.70;1766.40;;;;;;5091502;28;20016;-60
2021/04/23 00:24:12;;;;;;;15.45;9.43;;;333.70;1792.00;;;;;;5091589;28;20522;-63
2021/04/23 00:26:40;;;;;;;10.45;8.32;;;358.40;1792.00;;;;;;5091231;28;20055;-57
2021/04/23 00:29:06;;;;;;;14.88;9.98;;;333.60;1792.00;;;;;;5091433;28;20396;-63
2021/04/23 00:31:33;;;;;;;12.63;9.73;;;333.50;1792.00;;;;;;5091300;28;20039;-62
2021/04/23 00:33:58;;;;;;;14.32;10.98;;;333.50;1792.00;;;;;;5091180;28;20095;-58
2021/04/23 00:36:24;;;;;;;15.38;10.60;;;333.50;1817.60;;;;;;5091300;28;20417;-64
2021/04/23 00:38:50;;;;;;;17.70;9.80;;;333.40;1843.20;;;;;;5090844;28;20107;-63
2021/04/23 00:41:22;;;;;;;14.45;10.57;;;333.30;1868.80;;;;;;5091122;28;20032;-59
2021/04/23 00:43:56;;;;;;;14.38;10.38;;;333.30;1868.80;;;;;;5098757;28;20095;-59
2021/04/23 00:46:22;;;;;;;17.77;10.80;;;333.40;1868.80;;;;;;5101189;28;20123;-61
2021/04/23 00:48:49;;;;;;;12.57;10.55;;;333.30;1894.40;;;;;;5101725;28;20478;-62
2021/04/23 00:51:24;;;;;;;14.90;10.75;;;333.20;1920.00;;;;;;5099550;28;20032;-58
2021/04/23 00:53:51;;;;;;;13.25;10.27;;;333.10;1945.60;;;;;;5090677;28;20027;-64
2021/04/23 00:56:24;;;;;;;14.40;11.68;;;333.10;1920.00;;;;;;5090726;28;20027;-57
2021/04/23 00:58:51;;;;;;;15.00;10.35;;;333.10;1920.00;;;;;;5090810;28;20389;-57
2021/04/23 01:01:34;;;;;;;14.25;10.77;;;333.20;1945.60;;;;;;5090781;28;20043;-57
2021/04/23 01:04:01;;;;;;;14.38;10.70;;;333.10;1945.60;;;;;;5090704;28;20107;-56
2021/04/23 01:06:30;;;;;;;105.07;96.13;;;333.10;1920.00;;;;;;5090433;28;20390;-58
2021/04/23 01:08:58;;;;;;;15.90;10.93;;;333.00;1971.20;;;;;;5090207;28;20378;-58
2021/04/23 01:11:26;;;;;;;19.92;12.27;;;333.00;1996.80;;;;;;5090968;28;20402;-63
2021/04/23 01:13:53;;;;;;;14.82;11.85;;;333.00;1971.20;;;;;;5090701;28;20457;-59
2021/04/23 01:16:25;;;;;;;14.10;10.50;;;333.00;1996.80;;;;;;5090575;28;20107;-57
2021/04/23 01:18:52;;;;;;;18.25;12.50;;;332.90;2022.40;;;;;;5090617;28;20381;-64
2021/04/23 01:21:24;;;;;;;18.33;12.30;;;332.90;2022.40;;;;;;5089669;28;20027;-58
2021/04/23 01:23:53;;;;;;;19.60;11.25;;;332.90;2048.00;;;;;;5090056;28;20108;-63
2021/04/23 01:26:21;;;;;;;13.98;11.30;;;332.80;2073.60;;;;;;5090468;28;20025;-58
2021/04/23 01:28:52;;;;;;;13.57;10.45;;;332.90;2073.60;;;;;;5090175;28;20028;-58
2021/04/23 01:31:24;;;;;;;21.27;11.73;;;332.90;2073.60;;;;;;5090416;28;20118;-63
2021/04/23 01:33:54;;;;;;;18.33;11.68;;;332.90;2099.20;;;;;;5090218;28;20020;-58
2021/04/23 01:36:21;;;;;;;20.30;12.57;;;332.80;2150.40;;;;;;5089789;28;20028;-57
2021/04/23 01:38:49;;;;;;;15.55;12.43;;;332.80;2176.00;;;;;;5090224;28;20095;-63
2021/04/23 01:41:15;;;;;;;16.48;12.27;;;308.00;2150.40;;;;;;5090299;28;20056;-59
2021/04/23 01:43:43;;;;;;;19.10;13.32;;;308.00;2176.00;;;;;;5090109;28;20141;-57
2021/04/23 01:46:10;;;;;;;20.33;13.10;;;308.00;2176.00;;;;;;5089714;28;20060;-62
2021/04/23 01:48:36;;;;;;;18.58;16.63;;;332.80;2201.60;;;;;;5089871;28;20021;-57
2021/04/23 01:51:09;;;;;;;16.33;13.25;;;308.10;2201.60;;;;;;5090000;28;20081;-56
2021/04/23 01:53:36;;;;;;;27.23;21.02;;;308.10;2176.00;;;;;;5090374;28;20027;-58
2021/04/23 01:56:02;;;;;;;16.92;14.85;;;332.80;2176.00;;;;;;5090168;28;20367;-57
2021/04/23 01:58:28;;;;;;;17.65;12.27;;;308.10;2201.60;;;;;;5090188;28;20016;-58
2021/04/23 02:00:55;;;;;;;15.60;11.50;;;308.00;2201.60;;;;;;5090071;28;20017;-62
2021/04/23 02:03:23;;;;;;;15.07;12.13;;;308.00;2201.60;;;;;;5090056;28;20028;-60
2021/04/23 02:05:53;;;;;;;17.25;13.07;;;308.10;2176.00;;;;;;5093760;28;20055;-58
2021/04/23 02:08:20;;;;;;;15.65;12.45;;;308.00;2201.60;;;;;;5093711;28;20036;-60
2021/04/23 02:10:50;;;;;;;16.77;12.15;;;308.00;2201.60;;;;;;5093944;28;20040;-56
2021/04/23 02:13:25;;;;;;;14.48;11.45;;;308.00;2227.20;;;;;;5094282;28;20382;-56
2021/04/23 02:15:51;;;;;;;18.55;13.45;;;308.00;2201.60;;;;;;5093828;28;20020;-64
2021/04/23 02:18:18;;;;;;;16.73;11.65;;;308.10;2176.00;;;;;;5093597;28;20028;-62
2021/04/23 02:20:44;;;;;;;15.80;12.25;;;308.00;2201.60;;;;;;5093828;28;20020;-59
2021/04/23 02:23:12;;;;;;;22.65;12.82;;;308.00;2201.60;;;;;;5093927;28;20061;-59
2021/04/23 02:25:39;;;;;;;17.35;12.25;;;308.00;2176.00;;;;;;5093580;28;20103;-62
2021/04/23 02:28:07;;;;;;;16.08;12.05;;;308.10;2176.00;;;;;;5095322;28;20051;-64
2021/04/23 02:30:41;;;;;;;18.70;13.75;;;308.00;2201.60;;;;;;5092623;28;20044;-60
2021/04/23 02:33:08;;;;;;;17.98;13.50;;;307.90;2201.60;;;;;;5094745;28;20016;-56
2021/04/23 02:35:35;;;;;;;17.50;13.80;;;308.00;2201.60;;;;;;5094744;28;20032;-59
2021/04/23 02:38:02;;;;;;;17.70;13.80;;;308.10;2176.00;;;;;;5094415;28;20107;-60
2021/04/23 02:40:28;;;;;;;15.63;12.02;;;308.10;2176.00;;;;;;5099812;28;20032;-62
2021/04/23 02:42:57;;;;;;;15.93;12.52;;;308.00;2201.60;;;;;;5107329;28;20471;-61
2021/04/23 02:45:25;;;;;;;17.70;13.35;;;308.00;2201.60;;;;;;5107472;28;20056;-60
2021/04/23 02:47:52;;;;;;;16.05;12.93;;;308.00;2201.60;;;;;;5108654;28;20024;-59
2021/04/23 02:50:22;;;;;;;18.85;12.85;;;308.10;2176.00;;;;;;5109959;28;20069;-62
2021/04/23 02:52:48;;;;;;;16.70;13.55;;;308.10;2176.00;;;;;;5098443;28;20020;-62
2021/04/23 02:55:16;;;;;;;18.25;12.98;;;332.90;2176.00;;;;;;5093003;28;20020;-62
2021/04/23 02:57:56;;;;;;;16.30;12.70;;;332.90;2176.00;;;;;;5093167;28;20020;-65
2021/04/23 03:00:25;;;;;;;16.55;12.35;;;332.80;2201.60;;;;;;5092914;28;20016;-64
2021/04/23 03:02:51;;;;;;;16.08;12.70;;;332.80;2227.20;;;;;;5093032;28;20093;-65
2021/04/23 03:05:19;;;;;;;17.75;13.68;;;308.10;2201.60;;;;;;5092820;28;20024;-59
2021/04/23 03:07:44;;;;;;;16.33;12.63;;;308.10;2227.20;;;;;;5092587;28;20024;-59
2021/04/23 03:10:11;;;;;;;18.63;13.48;;;308.00;2227.20;;;;;;5092340;28;20031;-59
2021/04/23 03:12:37;;;;;;;16.90;14.45;;;307.90;2278.40;;;;;;5092696;28;20427;-65
2021/04/23 03:15:08;;;;;;;16.27;13.25;;;307.90;2252.80;;;;;;5092444;28;20021;-59
2021/04/23 03:17:34;;;;;;;19.67;13.95;;;307.90;2252.80;;;;;;5092971;28;20403;-65
2021/04/23 03:19:59;;;;;;;18.35;14.27;;;307.80;2278.40;;;;;;5092893;28;20067;-65
2021/04/23 03:22:25;;;;;;;20.23;15.18;;;307.80;2304.00;;;;;;5092741;28;20100;-60
2021/04/23 03:24:51;;;;;;;22.00;15.50;;;307.70;2304.00;;;;;;5092511;28;20113;-59
2021/04/23 03:27:16;;;;;;;18.23;12.98;;;307.70;2304.00;;;;;;5092394;28;20024;-61
2021/04/23 03:29:43;;;;;;;21.63;15.55;;;307.70;2304.00;;;;;;5092422;28;20044;-65
2021/04/23 03:32:08;;;;;;;23.52;16.88;;;307.70;2304.00;;;;;;5092350;28;20028;-66
2021/04/23 03:34:34;;;;;;;21.95;16.25;;;307.70;2304.00;;;;;;5092282;28;20034;-66
2021/04/23 03:37:01;;;;;;;21.70;16.80;;;307.80;2304.00;;;;;;5092270;28;20024;-64
2021/04/23 03:39:26;;;;;;;27.75;18.70;;;307.70;2304.00;;;;;;5091897;28;20032;-59
2021/04/23 03:41:52;;;;;;;25.00;18.48;;;307.70;2304.00;;;;;;5092358;28;20104;-66
2021/04/23 03:44:18;;;;;;;25.95;19.25;;;307.60;2304.00;;;;;;5091844;28;20056;-62
2021/04/23 03:46:44;;;;;;;26.35;19.00;;;307.60;2304.00;;;;;;5091966;28;20020;-65
2021/04/23 03:49:09;;;;;;;28.20;20.48;;;307.60;2304.00;;;;;;5085314;28;20031;-60
2021/04/23 03:51:35;;;;;;;24.08;17.92;;;307.40;2304.00;;;;;;5089017;28;20043;-59
2021/04/23 03:54:01;;;;;;;29.75;22.15;;;307.30;2304.00;;;;;;5078078;28;20032;-60
2021/04/23 03:56:27;;;;;;;29.98;20.13;;;307.30;2304.00;;;;;;5079023;28;20071;-58
2021/04/23 03:58:53;;;;;;;27.42;19.33;;;307.30;2304.00;;;;;;5071727;28;20028;-58
2021/04/23 04:01:22;;;;;;;23.10;18.67;;;307.30;2304.00;;;;;;5071276;28;20025;-58
2021/04/23 04:03:49;;;;;;;36.88;29.95;;;307.30;2304.00;;;;;;5071103;28;20380;-58
2021/04/23 04:06:15;;;;;;;31.02;22.20;;;307.30;2304.00;;;;;;5071637;28;20568;-62
2021/04/23 04:08:41;;;;;;;32.53;22.73;;;307.20;2304.00;;;;;;5079606;28;20107;-61
2021/04/23 04:11:07;;;;;;;29.33;21.38;;;282.50;2278.40;;;;;;5091302;28;20198;-64
2021/04/23 04:13:34;;;;;;;32.75;23.77;;;307.20;2278.40;;;;;;5091532;28;20111;-61
2021/04/23 04:16:02;;;;;;;32.70;19.95;;;282.50;2278.40;;;;;;5091452;28;20028;-58
2021/04/23 04:18:28;;;;;;;29.02;21.40;;;307.30;2304.00;;;;;;5091454;28;20032;-64
2021/04/23 04:20:54;;;;;;;30.98;19.92;;;307.30;2252.80;;;;;;5091543;28;20016;-65
2021/04/23 04:23:21;;;;;;;26.48;21.90;;;307.30;2278.40;;;;;;5091337;28;20051;-64
2021/04/23 04:25:57;;;;;;;30.40;21.20;;;307.30;2278.40;;;;;;5091153;28;20133;-63
2021/04/23 04:28:24;;;;;;;28.23;19.33;;;307.30;2304.00;;;;;;5090812;28;20048;-58
2021/04/23 04:30:51;;;;;;;31.10;20.25;;;282.50;2278.40;;;;;;5091088;28;20036;-60
2021/04/23 04:33:17;;;;;;;26.60;19.95;;;282.50;2278.40;;;;;;5091310;28;20020;-59
2021/04/23 04:35:43;;;;;;;29.48;20.10;;;282.50;2278.40;;;;;;5091243;28;20115;-63
2021/04/23 04:38:11;;;;;;;29.90;20.95;;;307.20;2304.00;;;;;;5090909;28;20073;-64
2021/04/23 04:40:40;;;;;;;29.60;21.77;;;307.30;2304.00;;;;;;5090916;28;20489;-65
2021/04/23 04:43:09;;;;;;;26.63;20.83;;;282.50;2278.40;;;;;;5091161;28;20115;-64
2021/04/23 04:45:35;;;;;;;27.67;21.58;;;282.50;2278.40;;;;;;5090908;28;20044;-65
2021/04/23 04:48:01;;;;;;;27.98;19.42;;;282.50;2278.40;;;;;;5091094;28;20081;-64
2021/04/23 04:50:31;;;;;;;31.15;19.90;;;282.40;2278.40;;;;;;5090960;28;20040;-65
2021/04/23 04:52:59;;;;;;;29.20;20.27;;;282.50;2278.40;;;;;;5090777;28;20027;-65
2021/04/23 04:55:29;;;;;;;28.33;20.15;;;282.50;2252.80;;;;;;5090905;28;20047;-64
2021/04/23 04:57:56;;;;;;;27.80;19.83;;;282.50;2252.80;;;;;;5090795;28;20028;-64
2021/04/23 05:00:24;;;;;;;29.83;19.20;;;282.50;2278.40;;;;;;5090969;28;20027;-63
2021/04/23 05:02:52;;;;;;;31.25;19.10;;;282.50;2278.40;;;;;;5090624;28;20070;-63
2021/04/23 05:05:19;;;;;;;25.00;19.70;;;282.50;2227.20;;;;;;5089169;28;20366;-63
2021/04/23 05:07:45;;;;;;;27.00;17.88;;;282.50;2252.80;;;;;;5090352;28;20027;-64
2021/04/23 05:10:12;;;;;;;28.17;20.27;;;282.50;2278.40;;;;;;5090369;28;20595;-64
2021/04/23 05:12:38;;;;;;;25.25;19.73;;;282.40;2252.80;;;;;;5090615;28;20020;-64
2021/04/23 05:15:06;;;;;;;24.77;18.48;;;282.40;2278.40;;;;;;5090605;28;20032;-64
2021/04/23 05:17:32;;;;;;;27.52;20.25;;;282.40;2278.40;;;;;;5090548;28;20127;-64
2021/04/23 05:19:57;;;;;;;26.40;19.67;;;282.50;2252.80;;;;;;5090078;28;20048;-64
2021/04/23 05:22:23;;;;;;;32.70;21.30;;;282.50;2252.80;;;;;;5090341;28;20152;-64
2021/04/23 05:24:49;;;;;;;28.35;19.63;;;307.20;2227.20;;;;;;5090270;28;20052;-64
2021/04/23 05:27:14;;;;;;;48.35;33.33;;;307.20;2252.80;;;;;;5090373;28;20367;-64
2021/04/23 05:29:40;;;;;;;39.83;27.15;;;307.30;2201.60;;;;;;5089949;28;20036;-64
2021/04/23 05:32:06;;;;;;;26.42;17.05;;;307.30;2227.20;;;;;;5090212;28;20447;-65
2021/04/23 05:34:32;;;;;;;31.35;21.55;;;307.50;2201.60;;;;;;5090390;28;20370;-64
2021/04/23 05:36:58;;;;;;;255.40;160.80;;;307.50;2176.00;;;;;;5090239;28;20373;-64
2021/04/23 05:39:24;;;;;;;30.58;22.17;;;307.40;2201.60;;;;;;5089990;28;20027;-64
2021/04/23 05:41:51;;;;;;;86.47;64.72;;;307.40;2176.00;;;;;;5089946;28;20028;-64
2021/04/23 05:44:17;;;;;;;29.08;20.45;;;307.50;2176.00;;;;;;5089961;28;20077;-64
2021/04/23 05:46:43;;;;;;;26.25;19.35;;;307.40;2201.60;;;;;;5090166;28;20028;-64
2021/04/23 05:49:09;;;;;;;25.08;18.98;;;307.40;2176.00;;;;;;5089752;28;20020;-64
2021/04/23 05:51:35;;;;;;;23.63;18.33;;;307.30;2201.60;;;;;;5090141;28;20036;-64
2021/04/23 05:54:01;;;;;;;24.73;17.60;;;307.40;2176.00;;;;;;5089946;28;20031;-64
2021/04/23 05:56:27;;;;;;;24.33;18.92;;;307.40;2201.60;;;;;;5090026;28;20469;-65
2021/04/23 05:58:54;;;;;;;21.92;18.20;;;307.50;2176.00;;;;;;5089499;28;20439;-66
2021/04/23 06:01:21;;;;;;;73.30;54.58;;;307.40;2201.60;;;;;;5089930;28;20024;-64
2021/04/23 06:03:47;;;;;;;66.75;44.15;;;307.30;2176.00;;;;;;5089754;28;20419;-64
2021/04/23 06:06:13;;;;;;;22.73;18.05;;;307.40;2176.00;;;;;;5089958;28;20028;-67
2021/04/23 06:08:38;;;;;;;34.63;24.08;;;307.40;2176.00;;;;;;5087113;28;20359;-66
2021/04/23 06:11:05;;;;;;;35.55;23.58;;;307.40;2176.00;;;;;;5088274;28;20500;-67
2021/04/23 06:13:32;;;;;;;28.58;18.52;;;307.50;2176.00;;;;;;5088068;28;20028;-67
2021/04/23 06:15:57;;;;;;;56.22;37.20;;;307.60;2150.40;;;;;;5088034;28;20054;-64
2021/04/23 06:18:23;;;;;;;42.28;29.35;;;307.70;2099.20;;;;;;5088274;28;20025;-64
2021/04/23 06:20:49;;;;;;;58.03;37.90;;;307.80;2099.20;;;;;;5087889;28;20028;-63
2021/04/23 06:23:16;;;;;;;27.00;20.52;;;307.80;2073.60;;;;;;5088155;28;20052;-64
2021/04/23 06:25:41;;;;;;;38.55;24.67;;;307.70;2124.80;;;;;;5088095;28;20368;-63
2021/04/23 06:28:09;;;;;;;25.92;19.23;;;307.80;2073.60;;;;;;5087941;28;20025;-64
2021/04/23 06:30:36;;;;;;;24.90;18.90;;;307.90;2099.20;;;;;;5088077;28;20123;-64
2021/04/23 06:33:11;;;;;;;27.25;18.70;;;307.90;2073.60;;;;;;5087947;28;20047;-62
2021/04/23 06:35:37;;;;;;;24.45;16.70;;;308.10;2073.60;;;;;;5087944;28;20385;-64
2021/04/23 06:38:03;;;;;;;24.25;17.17;;;308.00;2073.60;;;;;;5088159;28;20024;-66
2021/04/23 06:40:29;;;;;;;27.85;18.15;;;308.10;2048.00;;;;;;5082847;28;20423;-63
2021/04/23 06:42:55;;;;;;;28.33;16.77;;;308.00;2048.00;;;;;;5072788;28;20040;-62
2021/04/23 06:45:21;;;;;;;24.40;17.15;;;308.10;2022.40;;;;;;5072801;28;20067;-62
2021/04/23 06:47:48;;;;;;;20.88;16.70;;;308.10;2022.40;;;;;;5072664;28;20013;-64
2021/04/23 06:50:18;;;;;;;29.38;18.92;;;308.10;2022.40;;;;;;5074301;28;20166;-63
2021/04/23 06:52:45;;;;;;;23.25;16.98;;;308.00;2022.40;;;;;;5077006;28;20062;-63
2021/04/23 06:55:13;;;;;;;23.65;17.38;;;307.90;2022.40;;;;;;5076118;28;20028;-63
2021/04/23 06:57:39;;;;;;;35.00;23.48;;;308.10;1996.80;;;;;;5075990;28;20031;-64
2021/04/23 07:00:10;;;;;;;29.17;20.38;;;308.10;1996.80;;;;;;5080039;28;20021;-63
2021/04/23 07:02:35;;;;;;;20.52;16.60;;;308.10;1971.20;;;;;;5074744;28;20112;-63
2021/04/23 07:05:01;;;;;;;40.83;25.15;;;307.90;1945.60;;;;;;5075002;28;20572;-63
2021/04/23 07:07:27;;;;;;;38.60;25.02;;;308.00;1945.60;;;;;;5076291;28;20021;-64
2021/04/23 07:09:53;;;;;;;27.90;19.00;;;308.10;1945.60;;;;;;5075968;28;20029;-64
2021/04/23 07:12:18;;;;;;;27.70;17.50;;;308.10;1920.00;;;;;;5075619;28;20062;-65
2021/04/23 07:14:44;;;;;;;42.25;35.45;;;308.10;1894.40;;;;;;5081225;28;20024;-64
2021/04/23 07:17:11;;;;;;;24.35;17.40;;;308.10;1894.40;;;;;;5082002;28;20078;-64
2021/04/23 07:19:37;;;;;;;22.42;15.68;;;332.80;1894.40;;;;;;5082440;28;20031;-65
2021/04/23 07:22:04;;;;;;;20.73;15.27;;;332.80;1920.00;;;;;;5081879;28;20023;-63
2021/04/23 07:24:30;;;;;;;20.73;16.60;;;333.00;1843.20;;;;;;5081696;28;20024;-63
2021/04/23 07:26:56;;;;;;;28.73;20.13;;;333.10;1843.20;;;;;;5082415;28;20786;-64
2021/04/23 07:29:22;;;;;;;40.85;36.50;;;333.30;1817.60;;;;;;5081586;28;20028;-63
2021/04/23 07:31:48;;;;;;;21.00;15.57;;;333.30;1766.40;;;;;;5081338;28;20035;-63
2021/04/23 07:34:13;;;;;;;17.60;14.45;;;333.50;1792.00;;;;;;5082413;28;20020;-64
2021/04/23 07:36:39;;;;;;;22.10;15.23;;;333.50;1792.00;;;;;;5081936;28;20028;-65
2021/04/23 07:39:05;;;;;;;21.05;16.17;;;333.50;1766.40;;;;;;5080199;28;20037;-64
2021/04/23 07:41:31;;;;;;;22.35;15.05;;;333.60;1792.00;;;;;;5081810;28;20386;-64
2021/04/23 07:43:57;;;;;;;19.48;15.63;;;358.40;1817.60;;;;;;5076799;28;20028;-64
2021/04/23 07:46:22;;;;;;;23.98;17.55;;;358.50;1792.00;;;;;;5071986;28;20028;-63
2021/04/23 07:48:48;;;;;;;19.75;14.65;;;358.70;1715.20;;;;;;5071962;28;20063;-64
2021/04/23 07:51:14;;;;;;;27.25;20.00;;;359.00;1664.00;;;;;;5077378;28;20040;-63
2021/04/23 07:53:39;;;;;;;21.98;15.77;;;359.00;1715.20;;;;;;5077195;28;20032;-63
2021/04/23 07:56:05;;;;;;;22.95;17.23;;;359.00;1664.00;;;;;;5077934;28;20063;-63
2021/04/23 07:58:31;;;;;;;19.60;15.95;;;384.10;1638.40;;;;;;5078135;28;20025;-63
2021/04/23 08:00:58;;;;;;;16.45;12.68;;;384.10;1612.80;;;;;;5071779;28;20374;-64
2021/04/23 08:03:24;;;;;;;16.77;13.02;;;384.10;1510.40;;;;;;5071250;28;20139;-63
2021/04/23 08:05:50;;;;;;;18.90;12.73;;;384.30;1510.40;;;;;;5071557;28;20494;-63
2021/04/23 08:08:16;;;;;;;19.98;12.45;;;384.70;1484.80;;;;;;5071575;28;20050;-63
2021/04/23 08:10:42;;;;;;;34.22;19.05;;;409.60;1459.20;;;;;;5071462;28;20040;-63
2021/04/23 08:13:07;;;;;;;26.65;17.35;;;435.20;1408.00;;;;;;5071200;28;20086;-63
2021/04/23 08:15:35;;;;;;;18.75;14.85;;;461.20;1305.60;;;;;;5071519;28;20035;-63
2021/04/23 08:18:01;;;;;;;16.20;13.23;;;563.30;1100.80;;;;;;5071266;28;20490;-64
2021/04/23 08:20:28;;;;;;;13.27;11.48;;;614.70;870.40;;;;;;5071205;28;20070;-65
2021/04/23 08:22:53;;;;;;;13.45;10.60;;;615.30;819.20;;;;;;5071346;28;20024;-64
2021/04/23 08:25:20;;;;;;;19.33;15.15;;;640.10;819.20;;;;;;5071161;28;20074;-64
2021/04/23 08:27:48;;;;;;;13.10;10.73;;;589.20;844.80;;;;;;5071230;28;20041;-64
2021/04/23 08:30:14;;;;;;;12.90;10.85;;;563.80;947.20;;;;;;5070972;28;20044;-64
2021/04/23 08:32:42;;;;;;;14.07;11.98;;;538.50;947.20;;;;;;5071048;28;20033;-64
2021/04/23 08:35:09;;;;;;;18.58;11.95;;;537.80;998.40;;;;;;5071069;28;20447;-65
2021/04/23 08:37:35;;;;;;;16.15;12.40;;;537.80;1049.60;;;;;;5071146;28;20085;-63
2021/04/23 08:40:02;;;;;;;15.90;11.52;;;512.80;1024.00;;;;;;5070945;28;20032;-64
2021/04/23 08:42:28;;;;;;;12.73;11.23;;;512.70;1024.00;;;;;;5070861;28;20035;-65
2021/04/23 08:44:54;;;;;;;17.55;13.82;;;512.40;998.40;;;;;;5069456;28;20048;-63
2021/04/23 08:47:20;;;;;;;12.10;9.35;;;512.20;1049.60;;;;;;5070577;28;20029;-64
2021/04/23 08:49:48;;;;;;;18.05;11.73;;;512.10;1049.60;;;;;;5070494;28;20047;-66
2021/04/23 08:52:14;;;;;;;14.27;9.77;;;512.40;1024.00;;;;;;5070768;28;20099;-64
2021/04/23 08:54:40;;;;;;;13.00;9.00;;;512.50;1024.00;;;;;;5070277;28;20462;-64
2021/04/23 08:57:06;;;;;;;15.23;10.48;;;512.80;1024.00;;;;;;5070432;28;20021;-65
2021/04/23 08:59:33;;;;;;;13.48;8.50;;;512.50;972.80;;;;;;5070376;28;20072;-65
2021/04/23 09:01:59;;;;;;;10.73;8.75;;;537.80;1049.60;;;;;;5070732;28;20020;-62
2021/04/23 09:04:26;;;;;;;13.23;9.18;;;537.80;998.40;;;;;;5070193;28;20107;-63
2021/04/23 09:07:03;;;;;;;11.88;9.18;;;512.90;1024.00;;;;;;5070418;28;20062;-63
2021/04/23 09:09:35;;;;;;;17.17;10.32;;;512.70;998.40;;;;;;5068775;28;20043;-63
2021/04/23 09:12:15;;;;;;;13.40;9.32;;;537.60;921.60;;;;;;5070304;28;20036;-64
2021/04/23 09:14:41;;;;;;;11.55;8.95;;;512.70;819.20;;;;;;5070172;28;20103;-64
2021/04/23 09:17:07;;;;;;;11.80;8.27;;;461.50;1024.00;;;;;;5070236;28;20031;-66
2021/04/23 09:19:35;;;;;;;20.23;14.80;;;486.70;1049.60;;;;;;5070456;28;20029;-67
2021/04/23 09:22:19;;;;;;;14.98;9.43;;;487.00;1049.60;;;;;;5070527;28;20122;-64
2021/04/23 09:24:54;;;;;;;9.82;7.95;;;486.90;998.40;;;;;;5070017;28;20055;-65
2021/04/23 09:27:26;;;;;;;12.93;8.13;;;486.80;998.40;;;;;;5070114;28;20036;-63
2021/04/23 09:29:56;;;;;;;11.10;7.65;;;486.70;947.20;;;;;;5070008;28;20062;-64
2021/04/23 09:32:28;;;;;;;9.23;7.25;;;486.40;1049.60;;;;;;5070042;28;20033;-63
2021/04/23 09:35:02;;;;;;;16.33;11.18;;;486.40;1075.20;;;;;;5068133;28;20367;-64
2021/04/23 09:37:42;;;;;;;9.93;7.20;;;486.50;1126.40;;;;;;5068209;28;20059;-64
2021/04/23 09:40:20;;;;;;;17.48;15.30;;;461.70;1075.20;;;;;;5068153;28;20058;-62
2021/04/23 09:43:07;;;;;;;13.48;9.15;;;461.70;1049.60;;;;;;5068356;28;20106;-65
2021/04/23 09:45:46;;;;;;;12.50;8.50;;;461.60;1024.00;;;;;;5005887;28;20452;-63
2021/04/23 09:48:19;;;;;;;11.18;6.68;;;461.50;1100.80;;;;;;5006016;28;20504;-64
2021/04/23 09:50:44;;;;;;;15.07;8.68;;;461.00;1100.80;;;;;;5006141;28;20134;-64
2021/04/23 09:53:10;;;;;;;48.13;30.15;;;461.00;1075.20;;;;;;5005855;28;20121;-63
2021/04/23 09:55:36;;;;;;;10.90;7.25;;;461.10;1100.80;;;;;;5005915;28;20428;-65
2021/04/23 09:58:08;;;;;;;14.10;8.05;;;461.10;998.40;;;;;;5008658;28;20407;-64
2021/04/23 10:00:38;;;;;;;9.75;6.30;;;461.20;998.40;;;;;;5006195;28;20033;-63
2021/04/23 10:03:05;;;;;;;14.95;7.55;;;461.10;1024.00;;;;;;4997693;28;20046;-64
2021/04/23 10:05:35;;;;;;;10.30;6.53;;;461.40;1049.60;;;;;;4998647;28;20061;-64
2021/04/23 10:08:04;;;;;;;19.98;11.82;;;461.40;1024.00;;;;;;4996389;28;20018;-63
2021/04/23 10:10:30;;;;;;;44.60;25.50;;;461.50;1024.00;;;;;;5004375;28;20084;-64
2021/04/23 10:12:59;;;;;;;10.82;6.57;;;486.70;998.40;;;;;;5007723;28;20034;-65
2021/04/23 10:15:36;;;;;;;9.93;7.03;;;486.90;998.40;;;;;;5007894;28;20066;-63
2021/04/23 10:18:05;;;;;;;8.55;6.65;;;486.70;947.20;;;;;;5010933;28;20480;-64
2021/04/23 10:20:33;;;;;;;11.35;8.18;;;486.80;972.80;;;;;;5010798;28;20054;-65
2021/04/23 10:23:00;;;;;;;10.95;7.68;;;486.50;972.80;;;;;;5037641;28;20065;-64
2021/04/23 10:25:26;;;;;;;12.52;7.18;;;486.50;1049.60;;;;;;5054179;28;20024;-63
2021/04/23 10:27:54;;;;;;;13.88;8.20;;;486.90;1024.00;;;;;;5056342;28;20124;-64
2021/04/23 10:30:22;;;;;;;13.43;7.55;;;487.00;998.40;;;;;;5056485;28;20033;-64
2021/04/23 10:32:53;;;;;;;9.77;8.10;;;512.00;972.80;;;;;;5056438;28;20340;-65
2021/04/23 10:35:20;;;;;;;15.68;9.07;;;487.10;896.00;;;;;;5056444;28;20024;-62
2021/04/23 10:37:47;;;;;;;8.80;7.15;;;487.00;947.20;;;;;;5056167;28;20116;-65
2021/04/23 10:40:16;;;;;;;15.20;9.73;;;487.10;947.20;;;;;;5056004;28;20032;-64
2021/04/23 10:42:53;;;;;;;15.95;8.82;;;486.80;972.80;;;;;;5053979;28;20025;-63
2021/04/23 10:45:39;;;;;;;16.92;10.77;;;461.70;1024.00;;;;;;5052999;28;20124;-64
2021/04/23 10:48:17;;;;;;;12.88;8.82;;;461.70;1049.60;;;;;;5053266;28;20021;-64
2021/04/23 10:50:51;;;;;;;10.32;7.82;;;486.70;1024.00;;;;;;5052934;28;20040;-64
2021/04/23 10:53:20;;;;;;;12.35;7.18;;;486.90;1024.00;;;;;;5052783;28;20049;-64
2021/04/23 10:55:52;;;;;;;10.30;7.05;;;486.90;972.80;;;;;;5052891;28;20029;-65
2021/04/23 10:58:27;;;;;;;11.23;7.47;;;486.40;972.80;;;;;;5052896;28;20114;-64
2021/04/23 11:00:56;;;;;;;15.05;7.22;;;461.70;1049.60;;;;;;5053028;28;20021;-63
2021/04/23 11:03:33;;;;;;;11.25;9.00;;;461.60;1024.00;;;;;;5052934;28;20502;-64
2021/04/23 11:06:12;;;;;;;14.27;7.82;;;486.40;1049.60;;;;;;5052887;28;20025;-64
2021/04/23 11:08:38;;;;;;;9.40;7.25;;;486.40;998.40;;;;;;5052303;28;20055;-64
2021/04/23 11:11:13;;;;;;;10.93;6.97;;;461.70;972.80;;;;;;5052690;28;20051;-64
2021/04/23 11:13:44;;;;;;;12.93;8.20;;;486.60;972.80;;;;;;5052444;28;20079;-64
2021/04/23 11:16:22;;;;;;;36.17;17.00;;;486.80;972.80;;;;;;5052321;28;20025;-63
2021/04/23 11:18:51;;;;;;;35.75;20.88;;;487.00;998.40;;;;;;5052345;28;20073;-62
2021/04/23 11:21:36;;;;;;;13.77;7.93;;;512.00;921.60;;;;;;5052420;28;20104;-65
2021/04/23 11:24:10;;;;;;;12.65;7.38;;;512.10;972.80;;;;;;5052646;28;20040;-64
2021/04/23 11:27:09;;;;;;;13.52;8.35;;;512.60;972.80;;;;;;5052166;28;20470;-65
2021/04/23 11:29:39;;;;;;;22.88;12.35;;;512.60;870.40;;;;;;5052261;28;20090;-65
2021/04/23 11:32:10;;;;;;;16.25;10.68;;;512.70;921.60;;;;;;5052445;28;20523;-64
2021/04/23 11:34:44;;;;;;;16.25;10.38;;;512.80;896.00;;;;;;5052345;28;20433;-64
2021/04/23 11:37:13;;;;;;;13.25;7.05;;;512.40;921.60;;;;;;5051913;28;20040;-64
2021/04/23 11:39:44;;;;;;;14.32;8.90;;;512.60;921.60;;;;;;5051850;28;20031;-64
2021/04/23 11:42:19;;;;;;;13.07;7.65;;;512.40;921.60;;;;;;5052045;28;20523;-64
2021/04/23 11:44:56;;;;;;;9.75;7.63;;;512.40;972.80;;;;;;5051947;28;20483;-64
2021/04/23 11:47:35;;;;;;;9.30;6.97;;;512.80;947.20;;;;;;5052039;28;20029;-64
2021/04/23 11:50:01;;;;;;;12.30;7.32;;;512.90;896.00;;;;;;5051669;28;20036;-64
2021/04/23 11:52:30;;;;;;;13.63;8.27;;;512.70;870.40;;;;;;5051762;28;20109;-66
2021/04/23 11:54:57;;;;;;;19.55;11.48;;;512.60;896.00;;;;;;5051663;28;20108;-64
2021/04/23 11:57:28;;;;;;;16.27;9.38;;;512.20;896.00;;;;;;5051963;28;20025;-63
2021/04/23 11:59:57;;;;;;;13.07;9.10;;;487.10;896.00;;;;;;5051724;28;20032;-64
2021/04/23 12:02:40;;;;;;;15.63;9.63;;;487.00;870.40;;;;;;5051717;28;20414;-64
2021/04/23 12:05:08;;;;;;;11.90;8.02;;;486.60;896.00;;;;;;5051721;28;20040;-63
2021/04/23 12:07:45;;;;;;;21.58;19.17;;;461.70;921.60;;;;;;5050179;28;20428;-64
2021/04/23 12:10:11;;;;;;;10.80;7.30;;;486.60;921.60;;;;;;5051058;28;20394;-63